Flight Track Log - Related Links

Times and Time Zones

All times are in EST time to prevent confusion due to time zone crossing. See the EJA831 flight status page for this flight to view local times or setup timezone preferences in your user account.


Time Position Orientation Groundspeed Altitude Reporting Facility
EST Latitude Longitude Course Direction KTS MPH feet Rate Location/Type
Tue 04:02:05 PM 30.6222 -87.9919 64° Northeast 212 244 4,600  Level Houston Center
Tue 04:03:07 PM 30.6844 -87.9778 11° North 220 253 7,700 2,661 Climbing Houston Center
Tue 04:04:09 PM 30.7500 -87.9419 25° Northeast 264 304 10,100 2,274 Climbing Houston Center
Tue 04:05:11 PM 30.7606 -87.8336 84° East 335 386 12,400 2,565 Climbing Houston Center
Tue 04:06:00 PM 30.6765 -87.0000 85° East  Level Estimated
Tue 04:06:13 PM 30.7689 -87.6917 86° East 368 423 15,400  Level Houston Center
Tue 04:07:00 PM 30.7171 -86.9039 64° Northeast  Level FlightAware Approximate
Tue 04:07:07 PM 30.7747 -87.5925 86° East 344 396 17,400  Level Jacksonville Center
Tue 04:08:07 PM 30.7814 -87.4672 86° East 369 425 23,000 1,900 Climbing Jacksonville Center
Tue 04:09:07 PM 30.7903 -87.3344 86° East 393 452 21,200 -200 Descending Jacksonville Center
Tue 04:10:07 PM 30.7992 -87.1947 86° East 415 478 22,600 900 Climbing Jacksonville Center
Tue 04:11:07 PM 30.8083 -87.0500 86° East 433 498 23,000 200 Climbing Jacksonville Center
Tue 04:12:07 PM 30.8172 -86.9006 86° East 447 514 23,000  Level Jacksonville Center
Tue 04:13:07 PM 30.8239 -86.7558 87° East 453 521 23,000  Level Jacksonville Center
Tue 04:15:07 PM 30.8203 -86.4508 91° East 448 516 23,000  Level Jacksonville Center
Tue 04:16:07 PM 30.8178 -86.3056 91° East 448 516 23,000  Level Jacksonville Center
Tue 04:17:07 PM 30.8133 -86.1603 92° East 448 516 23,000  Level Jacksonville Center
Tue 04:18:07 PM 30.8106 -86.0175 91° East 443 510 23,000  Level Jacksonville Center
Tue 04:19:07 PM 30.8081 -85.8700 91° East 443 510 23,000  Level Jacksonville Center
Tue 04:20:07 PM 30.8050 -85.7247 91° East 443 510 23,000  Level Jacksonville Center
Tue 04:21:07 PM 30.8039 -85.5797 90° East 443 510 23,000  Level Jacksonville Center
Tue 04:22:07 PM 30.7986 -85.4319 92° East 443 510 23,000  Level Jacksonville Center
Tue 04:23:07 PM 30.7994 -85.2869 90° East 443 510 23,000  Level Jacksonville Center
Tue 04:24:07 PM 30.8019 -85.1419 89° East 443 510 23,000 -450 Level Jacksonville Center
Tue 04:25:07 PM 30.7983 -84.9967 92° East 443 510 22,100 -1,200 Descending Jacksonville Center
Tue 04:26:07 PM 30.7983 -84.8564 90° East 443 510 20,600 -1,500 Descending Jacksonville Center
Tue 04:27:07 PM 30.7964 -84.7136 91° East 438 504 19,100 -1,450 Descending Jacksonville Center
Tue 04:28:07 PM 30.7983 -84.5758 89° East 438 504 17,700 -1,400 Descending Jacksonville Center
Tue 04:29:07 PM 30.7936 -84.4428 92° East 427 491 16,300 -1,450 Descending Jacksonville Center
Tue 04:30:07 PM 30.7931 -84.3122 90° East 414 476 14,800 -1,500 Descending Jacksonville Center
Tue 04:31:07 PM 30.7925 -84.1864 90° East 402 463 13,300 -1,426 Descending Jacksonville Center
Tue 04:31:48 PM 30.7911 -84.1067 91° East 383 441 12,400 -1,200 Descending Jacksonville Center
Tue 04:32:07 PM 30.7914 -84.0631 90° East 391 450 12,100 -1,000 Descending Jacksonville Center
Tue 04:32:36 PM 30.7878 -84.0075 94° East 376 433 11,600 -1,000 Descending Jacksonville Center
Tue 04:33:07 PM 30.7903 -83.9444 87° East 378 435 11,100 -590 Descending Jacksonville Center
Tue 04:33:37 PM 30.7889 -83.8817 91° East 368 423 11,000 -200 Descending Jacksonville Center
Tue 04:34:07 PM 30.7892 -83.8261 90° East 365 420 10,900 -885 Descending Jacksonville Center
Tue 04:34:38 PM 30.7875 -83.7703 92° East 359 413 10,100 -1,300 Descending Jacksonville Center
Tue 04:35:07 PM 30.7878 -83.7197 90° East 350 403 9,600 -1,556 Descending Jacksonville Center
Tue 04:35:32 PM 30.7861 -83.6761 93° East 300 345 8,700 -1,900 Descending Jacksonville Center
Tue 04:36:07 PM 30.7844 -83.6206 92° East 323 372 7,700 -1,967 Descending Jacksonville Center
Tue 04:36:33 PM 30.7803 -83.5867 98° East 281 323 6,700 -1,800 Descending Jacksonville Center
Tue 04:37:07 PM 30.7828 -83.5406 86° East 292 336 5,900 -2,073 Descending Jacksonville Center
Tue 04:37:28 PM 30.7767 -83.5117 104° East 266 306 4,800 -2,200 Descending Jacksonville Center
Tue 04:38:07 PM 30.7789 -83.4558 87° East 274 315 3,700 -1,900 Descending Jacksonville Center
Tue 04:38:28 PM 30.7750 -83.4197 97° East 260 299 2,900 -1,400 Descending Jacksonville Center
Tue 04:39:07 PM 30.7708 -83.3786 97° East 254 292 2,300 -787 Descending Jacksonville Center
Tue 04:39:29 PM 30.7606 -83.3494 112° Southeast 202 232 2,100 -700 Descending Jacksonville Center
Tue 04:40:07 PM 30.7503 -83.3108 107° East 219 252 1,600 -806 Descending Jacksonville Center
Tue 04:40:36 PM 30.7419 -83.2961 123° Southeast 157 181 1,200 -200 Descending Jacksonville Center
Tue 04:41:07 PM 30.7400 -83.2528 93° East 219 252 1,400 -900 Climbing Jacksonville Center
Tue 04:41:36 PM 30.7586 -83.2722 318° Northwest 114 131 300 -2,276 Descending Jacksonville Center
Tue 04:43:00 PM 30.7667 -83.2667 337° Northwest  Level FlightAware Approximate

Login

Don't have an account? Register now (free) for customized features, flight alerts, and more!